Time;durP1;ratioP1;P1;durP2;ratioP2;P2;SDS_P1;SDS_P2;PMS_P1;PMS_P2;Temp;Humidity;BMP_temperature;BMP_pressure;BME280_temperature;BME280_humidity;BME280_pressure;Samples;Min_cycle;Max_cycle;Signal;HPM_P1;HPM_P2
2021/08/26 00:06:49;;;;;;;10.48;5.35;;;;;;;;;;5015114;28;20040;-51
2021/08/26 00:09:17;;;;;;;9.85;5.32;;;;;;;;;;5020393;28;20120;-56
2021/08/26 00:11:52;;;;;;;7.85;5.20;;;;;;;;;;5031744;28;20049;-54
2021/08/26 00:14:18;;;;;;;8.10;5.18;;;;;;;;;;5028302;28;20042;-53
2021/08/26 00:16:45;;;;;;;9.57;5.47;;;;;;;;;;5019417;28;20128;-52
2021/08/26 00:19:13;;;;;;;9.65;5.60;;;;;;;;;;5018044;28;20458;-53
2021/08/26 00:21:40;;;;;;;9.73;5.95;;;;;;;;;;5031648;28;20051;-51
2021/08/26 00:24:07;;;;;;;8.48;5.57;;;;;;;;;;5030354;28;20427;-52
2021/08/26 00:26:34;;;;;;;9.85;5.90;;;;;;;;;;5018195;28;20038;-56
2021/08/26 00:29:02;;;;;;;8.43;5.18;;;;;;;;;;5015778;28;20060;-52
2021/08/26 00:31:32;;;;;;;9.43;5.63;;;;;;;;;;5025182;28;20046;-54
2021/08/26 00:33:59;;;;;;;8.98;5.88;;;;;;;;;;5012811;28;20118;-50
2021/08/26 00:36:25;;;;;;;8.43;5.55;;;;;;;;;;5011954;28;20046;-55
2021/08/26 00:38:52;;;;;;;9.20;6.60;;;;;;;;;;5011566;28;20045;-55
2021/08/26 00:41:22;;;;;;;9.07;5.50;;;;;;;;;;5012152;28;20049;-54
2021/08/26 00:43:48;;;;;;;10.25;5.80;;;;;;;;;;5012146;28;20042;-56
2021/08/26 00:46:16;;;;;;;8.10;5.10;;;;;;;;;;5028836;28;20046;-55
2021/08/26 00:48:49;;;;;;;10.40;5.97;;;;;;;;;;5010711;28;20544;-53
2021/08/26 00:51:16;;;;;;;10.00;5.78;;;;;;;;;;5031948;28;20543;-54
2021/08/26 00:53:43;;;;;;;9.40;5.90;;;;;;;;;;5029919;28;20064;-56
2021/08/26 00:56:13;;;;;;;9.68;6.25;;;;;;;;;;5012209;28;20053;-53
2021/08/26 00:58:42;;;;;;;11.88;6.28;;;;;;;;;;5021137;28;20395;-53
2021/08/26 01:01:10;;;;;;;9.95;6.32;;;;;;;;;;5016789;28;20050;-54
2021/08/26 01:03:47;;;;;;;9.13;5.70;;;;;;;;;;5011685;28;20514;-54
2021/08/26 01:06:16;;;;;;;8.93;5.78;;;;;;;;;;5024908;28;20049;-56
2021/08/26 01:08:46;;;;;;;8.93;5.97;;;;;;;;;;5033347;28;20041;-54
2021/08/26 01:11:15;;;;;;;9.02;6.18;;;;;;;;;;5036266;28;20041;-52
2021/08/26 01:13:43;;;;;;;8.95;5.80;;;;;;;;;;5033755;28;20398;-55
2021/08/26 01:16:11;;;;;;;9.82;6.55;;;;;;;;;;5034494;28;20045;-56
2021/08/26 01:18:38;;;;;;;9.25;5.90;;;;;;;;;;5019136;28;20092;-56
2021/08/26 01:21:06;;;;;;;9.30;5.80;;;;;;;;;;5031792;28;20050;-55
2021/08/26 01:23:34;;;;;;;10.13;5.78;;;;;;;;;;5035195;28;20045;-54
2021/08/26 01:26:02;;;;;;;11.73;6.65;;;;;;;;;;5015761;28;20057;-55
2021/08/26 01:28:31;;;;;;;10.70;6.35;;;;;;;;;;5015013;28;20103;-55
2021/08/26 01:30:58;;;;;;;10.85;6.13;;;;;;;;;;5032999;28;20072;-55
2021/08/26 01:33:25;;;;;;;9.90;5.82;;;;;;;;;;5015315;28;20541;-56
2021/08/26 01:35:51;;;;;;;9.13;5.40;;;;;;;;;;5033582;28;20067;-54
2021/08/26 01:38:22;;;;;;;8.77;5.53;;;;;;;;;;5015223;28;20049;-56
2021/08/26 01:40:49;;;;;;;8.60;5.78;;;;;;;;;;5015859;28;20049;-56
2021/08/26 01:43:19;;;;;;;8.90;6.07;;;;;;;;;;5015559;28;20050;-56
2021/08/26 01:45:47;;;;;;;9.55;6.25;;;;;;;;;;5026154;28;20052;-55
2021/08/26 01:48:14;;;;;;;9.00;6.03;;;;;;;;;;5022537;28;20033;-56
2021/08/26 01:50:42;;;;;;;12.02;6.63;;;;;;;;;;4999003;28;20050;-56
2021/08/26 01:53:08;;;;;;;9.40;6.25;;;;;;;;;;5033442;28;20056;-55
2021/08/26 01:55:35;;;;;;;9.35;5.72;;;;;;;;;;5031486;28;20463;-56
2021/08/26 01:58:02;;;;;;;11.13;6.28;;;;;;;;;;5033667;28;20065;-55
2021/08/26 02:00:29;;;;;;;11.10;6.50;;;;;;;;;;5006053;28;20038;-55
2021/08/26 02:02:56;;;;;;;10.10;5.97;;;;;;;;;;5018981;28;20380;-56
2021/08/26 02:05:23;;;;;;;8.55;5.90;;;;;;;;;;5026001;28;20046;-55
2021/08/26 02:07:50;;;;;;;9.98;6.45;;;;;;;;;;5021470;28;20042;-56
2021/08/26 02:10:17;;;;;;;9.90;6.22;;;;;;;;;;5031988;28;20083;-56
2021/08/26 02:12:44;;;;;;;9.23;6.22;;;;;;;;;;5032600;28;20375;-55
2021/08/26 02:15:11;;;;;;;9.80;6.03;;;;;;;;;;5032966;28;20045;-56
2021/08/26 02:17:38;;;;;;;9.52;6.05;;;;;;;;;;5032198;28;20494;-54
2021/08/26 02:20:05;;;;;;;8.43;6.10;;;;;;;;;;5028898;28;20045;-56
2021/08/26 02:22:32;;;;;;;9.77;6.40;;;;;;;;;;5019270;28;20033;-56
2021/08/26 02:24:59;;;;;;;9.15;5.82;;;;;;;;;;5019533;28;20044;-52
2021/08/26 02:27:26;;;;;;;10.90;6.15;;;;;;;;;;5022472;28;20500;-55
2021/08/26 02:29:52;;;;;;;10.27;6.22;;;;;;;;;;5020535;28;20113;-55
2021/08/26 02:32:19;;;;;;;9.80;6.20;;;;;;;;;;5018876;28;20050;-53
2021/08/26 02:34:46;;;;;;;11.23;6.78;;;;;;;;;;5017695;28;20034;-56
2021/08/26 02:37:13;;;;;;;9.85;6.28;;;;;;;;;;5028427;28;20045;-52
2021/08/26 02:39:39;;;;;;;8.98;6.15;;;;;;;;;;5020545;28;20042;-53
2021/08/26 02:42:06;;;;;;;9.50;6.75;;;;;;;;;;5026976;28;20049;-53
2021/08/26 02:44:33;;;;;;;9.52;6.55;;;;;;;;;;5033069;28;20103;-56
2021/08/26 02:47:00;;;;;;;10.55;6.22;;;;;;;;;;5020724;28;20038;-51
2021/08/26 02:49:27;;;;;;;12.35;5.97;;;;;;;;;;5017379;28;20522;-54
2021/08/26 02:51:53;;;;;;;12.00;5.95;;;;;;;;;;5013539;28;20041;-54
2021/08/26 02:54:20;;;;;;;9.68;6.30;;;;;;;;;;5013301;28;20049;-56
2021/08/26 02:56:47;;;;;;;9.52;5.95;;;;;;;;;;5013091;28;20092;-55
2021/08/26 02:59:13;;;;;;;9.88;6.47;;;;;;;;;;5014358;28;20049;-56
2021/08/26 03:01:40;;;;;;;8.88;6.00;;;;;;;;;;5013145;28;20432;-56
2021/08/26 03:04:08;;;;;;;11.93;6.32;;;;;;;;;;5018633;28;20048;-56
2021/08/26 03:06:34;;;;;;;8.93;5.82;;;;;;;;;;5013207;28;20046;-55
2021/08/26 03:09:01;;;;;;;11.75;6.30;;;;;;;;;;5022331;28;20042;-55
2021/08/26 03:11:28;;;;;;;9.90;6.25;;;;;;;;;;5022930;28;20132;-56
2021/08/26 03:13:54;;;;;;;12.55;6.68;;;;;;;;;;5032150;28;20406;-55
2021/08/26 03:16:21;;;;;;;10.02;6.22;;;;;;;;;;5032349;28;20050;-53
2021/08/26 03:18:48;;;;;;;10.48;6.50;;;;;;;;;;5015612;28;20077;-54
2021/08/26 03:21:15;;;;;;;10.68;7.00;;;;;;;;;;5012647;28;20100;-54
2021/08/26 03:23:41;;;;;;;10.23;6.72;;;;;;;;;;5024569;28;20049;-55
2021/08/26 03:26:09;;;;;;;12.52;6.80;;;;;;;;;;5049123;28;20037;-56
2021/08/26 03:28:36;;;;;;;10.02;6.45;;;;;;;;;;5037203;28;20034;-56
2021/08/26 03:31:03;;;;;;;10.82;7.05;;;;;;;;;;5032226;28;20042;-56
2021/08/26 03:33:30;;;;;;;11.48;7.28;;;;;;;;;;5030676;28;20437;-54
2021/08/26 03:35:57;;;;;;;10.85;6.78;;;;;;;;;;4999734;28;20407;-54
2021/08/26 03:38:23;;;;;;;8.95;6.25;;;;;;;;;;5012281;28;20038;-56
2021/08/26 03:40:50;;;;;;;10.00;6.32;;;;;;;;;;5028098;28;20109;-55
2021/08/26 03:43:17;;;;;;;9.35;5.95;;;;;;;;;;5013618;28;20038;-56
2021/08/26 03:45:43;;;;;;;9.27;6.60;;;;;;;;;;5012094;28;20484;-55
2021/08/26 03:48:10;;;;;;;9.85;6.35;;;;;;;;;;5015657;28;20045;-55
2021/08/26 03:50:37;;;;;;;9.82;6.70;;;;;;;;;;5024527;28;20048;-55
2021/08/26 03:53:04;;;;;;;9.20;6.18;;;;;;;;;;5017178;28;20373;-56
2021/08/26 03:55:30;;;;;;;9.20;6.15;;;;;;;;;;5013309;28;20040;-54
2021/08/26 03:57:57;;;;;;;10.75;7.13;;;;;;;;;;5012141;28;20483;-55
2021/08/26 04:00:24;;;;;;;9.95;6.05;;;;;;;;;;5012853;28;20045;-55
2021/08/26 04:02:51;;;;;;;11.20;6.65;;;;;;;;;;5029866;28;20043;-55
2021/08/26 04:05:18;;;;;;;9.65;7.03;;;;;;;;;;5021959;28;20096;-54
2021/08/26 04:07:44;;;;;;;13.27;6.90;;;;;;;;;;5041018;22;20049;-48
2021/08/26 04:10:11;;;;;;;10.23;6.43;;;;;;;;;;4994199;28;20035;-53
2021/08/26 04:12:38;;;;;;;9.98;6.40;;;;;;;;;;4991945;28;20506;-50
2021/08/26 04:15:05;;;;;;;10.20;6.10;;;;;;;;;;5010750;28;20408;-48
2021/08/26 04:17:31;;;;;;;11.23;6.70;;;;;;;;;;4996578;28;20044;-49
2021/08/26 04:19:58;;;;;;;10.93;7.18;;;;;;;;;;4994905;28;20427;-47
2021/08/26 04:22:28;;;;;;;9.15;6.38;;;;;;;;;;4991939;28;20048;-48
2021/08/26 04:24:55;;;;;;;9.68;6.68;;;;;;;;;;4996502;28;20068;-49
2021/08/26 04:27:22;;;;;;;10.32;6.18;;;;;;;;;;5003394;28;20043;-54
2021/08/26 04:29:48;;;;;;;9.50;6.28;;;;;;;;;;4996003;28;20038;-49
2021/08/26 04:32:15;;;;;;;10.32;6.65;;;;;;;;;;5011400;28;20133;-50
2021/08/26 04:34:42;;;;;;;10.88;6.45;;;;;;;;;;5009684;28;20045;-52
2021/08/26 04:37:09;;;;;;;10.40;6.78;;;;;;;;;;5009375;28;20057;-49
2021/08/26 04:39:35;;;;;;;9.48;6.47;;;;;;;;;;4998435;28;20404;-50
2021/08/26 04:42:02;;;;;;;10.70;6.40;;;;;;;;;;4994353;28;20541;-53
2021/08/26 04:44:29;;;;;;;11.77;6.93;;;;;;;;;;5014561;28;20042;-49
2021/08/26 04:46:56;;;;;;;13.13;8.55;;;;;;;;;;5001957;28;20039;-48
2021/08/26 04:49:23;;;;;;;8.52;6.75;;;;;;;;;;4998359;28;20145;-51
2021/08/26 04:51:50;;;;;;;8.80;6.60;;;;;;;;;;5004901;28;20038;-50
2021/08/26 04:54:18;;;;;;;9.30;6.55;;;;;;;;;;5013827;28;20363;-48
2021/08/26 04:56:45;;;;;;;9.90;6.43;;;;;;;;;;4995188;28;20038;-51
2021/08/26 04:59:11;;;;;;;11.43;7.03;;;;;;;;;;4998665;28;20042;-53
2021/08/26 05:01:38;;;;;;;9.30;6.35;;;;;;;;;;5005004;28;20060;-48
2021/08/26 05:04:06;;;;;;;8.80;6.63;;;;;;;;;;5014255;28;20442;-53
2021/08/26 05:06:33;;;;;;;11.35;6.75;;;;;;;;;;5002535;28;20070;-50
2021/08/26 05:08:59;;;;;;;8.90;6.32;;;;;;;;;;4994850;28;20042;-51
2021/08/26 05:11:26;;;;;;;10.15;6.32;;;;;;;;;;5004647;28;20046;-54
2021/08/26 05:13:53;;;;;;;10.13;6.85;;;;;;;;;;5003257;28;20046;-52
2021/08/26 05:16:20;;;;;;;10.35;6.72;;;;;;;;;;5006264;28;20050;-51
2021/08/26 05:18:47;;;;;;;10.40;6.63;;;;;;;;;;5013193;28;20048;-54
2021/08/26 05:21:13;;;;;;;11.48;6.80;;;;;;;;;;5014624;28;20144;-50
2021/08/26 05:23:40;;;;;;;11.77;6.95;;;;;;;;;;5014494;28;20042;-55
2021/08/26 05:26:10;;;;;;;10.48;6.78;;;;;;;;;;5001967;28;20503;-49
2021/08/26 05:28:37;;;;;;;9.48;6.70;;;;;;;;;;5014019;28;20140;-51
2021/08/26 05:31:04;;;;;;;10.25;7.35;;;;;;;;;;4986688;28;20038;-52
2021/08/26 05:33:31;;;;;;;10.65;6.65;;;;;;;;;;5003201;28;20038;-49
2021/08/26 05:35:57;;;;;;;16.23;7.38;;;;;;;;;;5007990;28;20030;-52
2021/08/26 05:38:24;;;;;;;14.02;7.43;;;;;;;;;;5004253;28;20614;-50
2021/08/26 05:40:51;;;;;;;18.17;7.05;;;;;;;;;;5012905;28;20045;-50
2021/08/26 05:43:17;;;;;;;10.27;6.40;;;;;;;;;;5005648;28;20033;-49
2021/08/26 05:45:44;;;;;;;9.57;7.03;;;;;;;;;;5009224;28;20044;-51
2021/08/26 05:48:11;;;;;;;12.20;6.68;;;;;;;;;;5007094;28;20034;-51
2021/08/26 05:50:38;;;;;;;16.48;7.40;;;;;;;;;;5001556;28;20038;-53
2021/08/26 05:53:05;;;;;;;15.05;7.97;;;;;;;;;;4995754;28;20061;-53
2021/08/26 05:55:31;;;;;;;8.77;6.53;;;;;;;;;;4993589;28;20061;-51
2021/08/26 05:57:58;;;;;;;11.23;7.40;;;;;;;;;;5004268;28;20434;-51
2021/08/26 06:00:25;;;;;;;21.90;7.38;;;;;;;;;;5005300;28;20216;-50
2021/08/26 06:02:52;;;;;;;12.10;6.82;;;;;;;;;;5012294;28;20046;-50
2021/08/26 06:05:19;;;;;;;11.70;7.25;;;;;;;;;;5012174;28;20050;-50
2021/08/26 06:07:47;;;;;;;11.68;7.22;;;;;;;;;;4994997;28;20049;-51
2021/08/26 06:10:14;;;;;;;11.30;6.82;;;;;;;;;;4993344;28;20042;-51
2021/08/26 06:12:41;;;;;;;17.48;7.32;;;;;;;;;;5012584;28;20398;-52
2021/08/26 06:15:09;;;;;;;12.52;7.28;;;;;;;;;;5004214;28;20058;-51
2021/08/26 06:17:36;;;;;;;21.42;8.68;;;;;;;;;;4994143;28;20057;-53
2021/08/26 06:20:04;;;;;;;12.00;7.15;;;;;;;;;;4995267;28;20050;-52
2021/08/26 06:22:30;;;;;;;10.15;7.38;;;;;;;;;;4994129;28;20045;-53
2021/08/26 06:24:57;;;;;;;11.60;6.93;;;;;;;;;;5002870;28;20046;-52
2021/08/26 06:27:24;;;;;;;11.45;7.15;;;;;;;;;;5002576;28;20040;-51
2021/08/26 06:29:50;;;;;;;9.90;6.80;;;;;;;;;;4995849;28;20129;-52
2021/08/26 06:32:17;;;;;;;10.30;6.82;;;;;;;;;;5013583;28;20050;-49
2021/08/26 06:34:44;;;;;;;10.07;7.18;;;;;;;;;;5012786;28;20046;-50
2021/08/26 06:37:11;;;;;;;8.63;6.65;;;;;;;;;;4998972;28;20054;-48
2021/08/26 06:39:38;;;;;;;9.73;6.63;;;;;;;;;;4993488;28;20043;-51
2021/08/26 06:42:05;;;;;;;9.60;7.13;;;;;;;;;;4994622;28;20411;-55
2021/08/26 06:44:31;;;;;;;9.98;6.82;;;;;;;;;;4994381;28;20045;-50
2021/08/26 06:46:58;;;;;;;11.65;6.95;;;;;;;;;;4994467;28;20146;-50
2021/08/26 06:49:25;;;;;;;10.70;6.95;;;;;;;;;;5012246;28;20052;-53
2021/08/26 06:51:52;;;;;;;9.85;7.05;;;;;;;;;;5012472;28;20483;-52
2021/08/26 06:54:18;;;;;;;11.35;7.47;;;;;;;;;;5013166;28;20140;-54
2021/08/26 06:56:45;;;;;;;11.45;7.18;;;;;;;;;;5004868;28;20129;-52
2021/08/26 06:59:12;;;;;;;9.10;7.38;;;;;;;;;;4994221;28;20046;-54
2021/08/26 07:01:39;;;;;;;9.15;6.35;;;;;;;;;;5007176;28;20049;-49
2021/08/26 07:04:06;;;;;;;9.20;6.47;;;;;;;;;;5012794;28;20560;-49
2021/08/26 07:06:33;;;;;;;12.93;7.47;;;;;;;;;;5010670;28;20042;-50
2021/08/26 07:09:00;;;;;;;9.80;6.55;;;;;;;;;;5004552;28;20401;-49
2021/08/26 07:11:30;;;;;;;12.45;7.15;;;;;;;;;;4993409;28;20049;-50
2021/08/26 07:13:57;;;;;;;11.50;7.63;;;;;;;;;;5002039;28;20042;-47
2021/08/26 07:16:24;;;;;;;9.90;7.03;;;;;;;;;;5000324;28;20511;-54
2021/08/26 07:18:51;;;;;;;11.98;7.30;;;;;;;;;;5000253;28;20042;-52
2021/08/26 07:21:17;;;;;;;9.50;7.20;;;;;;;;;;4992927;28;20042;-49
2021/08/26 07:23:45;;;;;;;13.82;7.32;;;;;;;;;;5010881;28;20554;-49
2021/08/26 07:26:12;;;;;;;20.80;9.40;;;;;;;;;;5012344;28;20136;-52
2021/08/26 07:28:38;;;;;;;12.52;8.70;;;;;;;;;;4995044;28;20042;-51
2021/08/26 07:31:05;;;;;;;14.50;8.35;;;;;;;;;;4995410;28;20117;-48
2021/08/26 07:33:32;;;;;;;13.50;8.75;;;;;;;;;;4992759;28;20046;-47
2021/08/26 07:35:59;;;;;;;16.63;9.52;;;;;;;;;;5006715;28;20050;-54
2021/08/26 07:38:26;;;;;;;16.42;9.60;;;;;;;;;;5005164;28;20041;-48
2021/08/26 07:40:53;;;;;;;13.15;8.02;;;;;;;;;;5001365;28;20034;-51
2021/08/26 07:43:19;;;;;;;14.93;10.10;;;;;;;;;;5012310;28;20050;-51
2021/08/26 07:45:46;;;;;;;15.60;10.75;;;;;;;;;;4998522;28;20079;-49
2021/08/26 07:48:13;;;;;;;18.73;9.68;;;;;;;;;;5001091;28;20084;-48
2021/08/26 07:50:39;;;;;;;16.35;11.23;;;;;;;;;;4995495;28;20046;-50
2021/08/26 07:53:06;;;;;;;16.13;11.15;;;;;;;;;;4996036;28;20061;-50
2021/08/26 07:55:33;;;;;;;20.58;11.70;;;;;;;;;;5017936;28;20151;-46
2021/08/26 07:58:00;;;;;;;18.05;11.52;;;;;;;;;;5003557;28;20043;-54
2021/08/26 08:00:26;;;;;;;17.55;12.75;;;;;;;;;;5007715;28;20081;-54
2021/08/26 08:02:54;;;;;;;21.00;12.88;;;;;;;;;;5020965;28;20601;-52
2021/08/26 08:05:21;;;;;;;19.00;13.15;;;;;;;;;;5006682;28;20049;-51
2021/08/26 08:07:48;;;;;;;17.85;12.63;;;;;;;;;;5003521;28;20045;-52
2021/08/26 08:10:16;;;;;;;18.15;12.55;;;;;;;;;;5004183;28;20038;-48
2021/08/26 08:12:43;;;;;;;20.85;13.40;;;;;;;;;;5004975;28;20042;-51
2021/08/26 08:15:10;;;;;;;21.10;14.65;;;;;;;;;;5005603;28;20125;-55
2021/08/26 08:17:37;;;;;;;20.60;13.15;;;;;;;;;;5009075;28;20133;-50
2021/08/26 08:20:05;;;;;;;18.85;13.75;;;;;;;;;;5012538;28;20509;-51
2021/08/26 08:22:32;;;;;;;20.27;13.60;;;;;;;;;;5005530;28;20061;-50
2021/08/26 08:24:59;;;;;;;19.75;13.65;;;;;;;;;;5016407;28;20446;-49
2021/08/26 08:27:26;;;;;;;23.25;12.80;;;;;;;;;;5025528;28;20137;-51
2021/08/26 08:29:52;;;;;;;18.27;13.35;;;;;;;;;;4996238;28;20037;-53
2021/08/26 08:32:19;;;;;;;17.63;11.65;;;;;;;;;;5019342;28;20429;-52
2021/08/26 08:34:46;;;;;;;18.20;13.60;;;;;;;;;;5024580;28;20045;-50
2021/08/26 08:37:13;;;;;;;21.13;14.23;;;;;;;;;;5019096;28;20060;-54
2021/08/26 08:39:42;;;;;;;21.67;13.80;;;;;;;;;;5011958;28;20042;-52
2021/08/26 08:42:09;;;;;;;25.58;14.80;;;;;;;;;;5016397;28;20042;-52
2021/08/26 08:44:36;;;;;;;19.20;13.27;;;;;;;;;;5007861;28;20574;-53
2021/08/26 08:47:04;;;;;;;18.75;13.65;;;;;;;;;;5005016;28;20056;-55
2021/08/26 08:49:32;;;;;;;21.67;13.60;;;;;;;;;;5012268;28;20040;-51
2021/08/26 08:52:00;;;;;;;21.58;15.43;;;;;;;;;;5019986;28;20034;-52
2021/08/26 08:54:27;;;;;;;18.38;14.02;;;;;;;;;;5027762;28;20406;-47
2021/08/26 08:56:53;;;;;;;22.92;14.98;;;;;;;;;;5017308;28;20116;-48
2021/08/26 08:59:20;;;;;;;19.10;14.90;;;;;;;;;;5030852;28;20483;-56
2021/08/26 09:01:53;;;;;;;21.63;15.13;;;;;;;;;;5026992;28;20380;-50
2021/08/26 09:04:21;;;;;;;21.40;15.20;;;;;;;;;;5020736;28;20049;-51
2021/08/26 09:06:50;;;;;;;22.58;15.48;;;;;;;;;;5030688;28;20050;-48
2021/08/26 09:09:17;;;;;;;26.08;15.02;;;;;;;;;;5010938;28;20048;-53
2021/08/26 09:11:48;;;;;;;25.45;16.98;;;;;;;;;;5030446;28;20034;-47
2021/08/26 09:14:15;;;;;;;24.73;15.85;;;;;;;;;;5030518;28;20045;-53
2021/08/26 09:16:43;;;;;;;23.38;16.08;;;;;;;;;;5020130;28;20064;-48
2021/08/26 09:19:33;;;;;;;23.08;16.85;;;;;;;;;;5012175;28;20129;-52
2021/08/26 09:22:03;;;;;;;24.80;16.08;;;;;;;;;;5008048;28;20414;-53
2021/08/26 09:24:42;;;;;;;23.05;16.27;;;;;;;;;;5030562;28;20046;-55
2021/08/26 09:27:08;;;;;;;22.08;16.05;;;;;;;;;;5015384;28;20057;-54
2021/08/26 09:29:56;;;;;;;23.90;17.25;;;;;;;;;;5014447;28;20505;-53
2021/08/26 09:32:31;;;;;;;24.13;16.90;;;;;;;;;;5034185;28;20072;-51
2021/08/26 09:35:08;;;;;;;25.52;17.23;;;;;;;;;;5023264;28;20055;-50
2021/08/26 09:37:40;;;;;;;22.17;16.85;;;;;;;;;;5014918;28;20042;-53
2021/08/26 09:40:07;;;;;;;24.52;16.83;;;;;;;;;;5022824;28;20045;-50
2021/08/26 09:42:33;;;;;;;24.55;16.90;;;;;;;;;;5031490;28;20506;-49
2021/08/26 09:45:19;;;;;;;24.20;17.02;;;;;;;;;;5032074;28;20051;-52
2021/08/26 09:48:05;;;;;;;26.05;18.15;;;;;;;;;;5016964;28;20045;-48
2021/08/26 09:50:40;;;;;;;26.42;16.65;;;;;;;;;;5034019;28;20042;-47
2021/08/26 09:53:07;;;;;;;28.33;17.90;;;;;;;;;;5025887;28;20483;-52
2021/08/26 09:55:49;;;;;;;24.08;17.25;;;;;;;;;;5023929;28;20038;-48
2021/08/26 09:58:17;;;;;;;25.98;17.85;;;;;;;;;;5033532;28;20040;-49
2021/08/26 10:00:44;;;;;;;26.23;18.17;;;;;;;;;;5025487;28;20041;-52
2021/08/26 10:03:12;;;;;;;23.95;18.05;;;;;;;;;;5033573;28;20045;-52
2021/08/26 10:05:42;;;;;;;24.48;17.80;;;;;;;;;;5028027;28;20061;-53
2021/08/26 10:08:10;;;;;;;25.45;17.73;;;;;;;;;;5021705;28;20041;-54
2021/08/26 10:10:40;;;;;;;23.52;17.92;;;;;;;;;;5019426;28;20046;-50
2021/08/26 10:13:09;;;;;;;25.60;17.70;;;;;;;;;;5029137;28;20034;-52
2021/08/26 10:15:38;;;;;;;23.90;17.17;;;;;;;;;;5033455;28;20425;-50
2021/08/26 10:18:05;;;;;;;22.60;16.23;;;;;;;;;;5025753;28;20042;-50
2021/08/26 10:20:32;;;;;;;25.75;17.88;;;;;;;;;;5022203;28;20045;-52
2021/08/26 10:23:00;;;;;;;23.60;16.52;;;;;;;;;;5031780;28;20055;-50
2021/08/26 10:25:27;;;;;;;23.13;17.05;;;;;;;;;;5030915;28;20042;-50
2021/08/26 10:27:56;;;;;;;23.70;17.67;;;;;;;;;;5023564;28;20499;-52
2021/08/26 10:30:30;;;;;;;21.10;16.67;;;;;;;;;;5019660;28;20038;-50
2021/08/26 10:33:05;;;;;;;25.33;18.50;;;;;;;;;;5023423;28;20033;-53
2021/08/26 10:35:32;;;;;;;24.00;17.17;;;;;;;;;;5032487;28;20125;-52
2021/08/26 10:37:58;;;;;;;23.13;18.00;;;;;;;;;;5028316;28;20038;-51
2021/08/26 10:40:25;;;;;;;22.92;16.02;;;;;;;;;;5012037;28;20398;-54
2021/08/26 10:42:56;;;;;;;24.77;16.15;;;;;;;;;;5032774;28;20046;-53
2021/08/26 10:45:34;;;;;;;24.38;17.70;;;;;;;;;;5015760;28;20049;-53
2021/08/26 10:48:02;;;;;;;20.02;15.43;;;;;;;;;;4992924;28;20044;-52
2021/08/26 10:50:37;;;;;;;21.38;15.52;;;;;;;;;;5010615;28;20440;-51
2021/08/26 10:53:08;;;;;;;21.02;15.20;;;;;;;;;;5032537;28;20048;-54
2021/08/26 10:55:34;;;;;;;22.85;16.08;;;;;;;;;;5020553;28;20411;-52
2021/08/26 10:58:16;;;;;;;20.65;15.63;;;;;;;;;;5015950;28;20041;-52
2021/08/26 11:00:43;;;;;;;20.90;14.85;;;;;;;;;;5029183;28;20045;-52
2021/08/26 11:03:30;;;;;;;19.95;16.50;;;;;;;;;;5026894;28;20469;-52
2021/08/26 11:06:22;;;;;;;19.42;14.70;;;;;;;;;;4998502;28;20045;-49
2021/08/26 11:08:53;;;;;;;20.92;15.30;;;;;;;;;;5009357;28;20043;-50
2021/08/26 11:11:29;;;;;;;19.98;13.35;;;;;;;;;;5024056;28;20509;-52
2021/08/26 11:13:59;;;;;;;18.73;13.10;;;;;;;;;;5004176;28;20540;-51
2021/08/26 11:16:26;;;;;;;18.83;11.90;;;;;;;;;;5019905;28;20125;-54
2021/08/26 11:19:15;;;;;;;18.48;13.13;;;;;;;;;;5000984;28;20137;-50
2021/08/26 11:24:23;;;;;;;20.63;13.85;;;;;;;;;;5009434;28;20502;-52
2021/08/26 11:26:57;;;;;;;19.35;11.68;;;;;;;;;;5005206;28;20125;-52
2021/08/26 11:29:23;;;;;;;17.42;11.77;;;;;;;;;;5007862;28;20149;-52
2021/08/26 11:31:53;;;;;;;17.10;11.70;;;;;;;;;;4996785;28;20443;-53
2021/08/26 11:34:31;;;;;;;18.13;12.98;;;;;;;;;;5023524;28;20042;-51
2021/08/26 11:36:57;;;;;;;17.90;12.55;;;;;;;;;;5017617;28;20034;-51
2021/08/26 11:39:26;;;;;;;17.85;12.55;;;;;;;;;;5021820;28;20049;-53
2021/08/26 11:41:53;;;;;;;15.55;10.50;;;;;;;;;;5031577;28;20048;-52
2021/08/26 11:44:19;;;;;;;14.15;11.38;;;;;;;;;;5021964;28;20058;-49
2021/08/26 11:46:46;;;;;;;13.32;10.63;;;;;;;;;;5028216;28;20045;-50
2021/08/26 11:49:13;;;;;;;18.92;11.30;;;;;;;;;;5005191;28;20040;-54
2021/08/26 11:51:40;;;;;;;20.73;11.48;;;;;;;;;;5026077;28;20073;-51
2021/08/26 11:54:11;;;;;;;16.85;11.85;;;;;;;;;;5031521;28;20133;-50
2021/08/26 11:56:42;;;;;;;19.85;13.35;;;;;;;;;;5016296;28;20050;-49
2021/08/26 11:59:22;;;;;;;17.95;12.93;;;;;;;;;;5031363;28;20060;-48
2021/08/26 12:01:49;;;;;;;21.35;14.80;;;;;;;;;;5012434;28;20042;-53
2021/08/26 12:04:15;;;;;;;18.38;14.02;;;;;;;;;;5010386;28;20046;-53
2021/08/26 12:06:48;;;;;;;20.95;14.80;;;;;;;;;;5014835;28;20411;-49
2021/08/26 12:09:15;;;;;;;20.92;15.35;;;;;;;;;;5021244;28;20485;-54
2021/08/26 12:11:42;;;;;;;24.40;16.20;;;;;;;;;;5022516;28;20061;-48
2021/08/26 12:14:09;;;;;;;22.27;16.70;;;;;;;;;;5022470;28;20052;-50
2021/08/26 12:16:36;;;;;;;22.48;16.77;;;;;;;;;;5021731;28;20124;-50
2021/08/26 12:19:04;;;;;;;25.17;17.85;;;;;;;;;;5013557;28;20418;-51
2021/08/26 12:21:31;;;;;;;23.55;17.67;;;;;;;;;;5028789;28;20099;-51
2021/08/26 12:23:58;;;;;;;20.42;16.80;;;;;;;;;;5018397;28;20141;-50
2021/08/26 12:26:24;;;;;;;20.42;15.02;;;;;;;;;;5016094;28;20045;-51
2021/08/26 12:28:57;;;;;;;20.98;16.20;;;;;;;;;;5010796;28;20447;-48
2021/08/26 12:31:24;;;;;;;20.95;15.98;;;;;;;;;;5014703;28;20045;-50
2021/08/26 12:33:55;;;;;;;18.60;15.52;;;;;;;;;;5023497;28;20042;-52
2021/08/26 12:36:22;;;;;;;18.38;14.57;;;;;;;;;;5004118;28;20390;-46
2021/08/26 12:39:02;;;;;;;18.38;14.88;;;;;;;;;;5000873;28;20038;-46
2021/08/26 12:41:29;;;;;;;21.33;16.15;;;;;;;;;;5011477;28;20050;-47
2021/08/26 12:43:57;;;;;;;16.80;13.95;;;;;;;;;;5011540;28;20698;-47
2021/08/26 12:46:28;;;;;;;18.50;14.18;;;;;;;;;;5011360;28;20046;-47
2021/08/26 12:49:05;;;;;;;14.27;12.55;;;;;;;;;;4994455;28;20211;-47
2021/08/26 12:51:32;;;;;;;12.80;11.13;;;;;;;;;;4991885;28;20334;-48
2021/08/26 12:54:05;;;;;;;13.05;10.27;;;;;;;;;;4991849;28;20046;-49
2021/08/26 12:56:39;;;;;;;11.63;8.55;;;;;;;;;;4991962;28;20049;-47
2021/08/26 12:59:07;;;;;;;9.45;8.20;;;;;;;;;;4991545;28;20081;-46
2021/08/26 13:01:35;;;;;;;10.95;9.48;;;;;;;;;;4991693;28;20046;-48
2021/08/26 13:04:03;;;;;;;11.30;8.50;;;;;;;;;;4991919;28;20039;-48
2021/08/26 13:06:39;;;;;;;11.52;9.32;;;;;;;;;;4995569;28;20104;-49
2021/08/26 13:09:11;;;;;;;10.50;8.50;;;;;;;;;;4995201;28;20038;-47
2021/08/26 13:11:38;;;;;;;9.48;8.38;;;;;;;;;;4995461;28;20048;-48
2021/08/26 13:14:04;;;;;;;12.27;8.30;;;;;;;;;;4995157;28;20399;-51
2021/08/26 13:16:31;;;;;;;10.75;8.30;;;;;;;;;;4995480;28;20511;-48
2021/08/26 13:18:58;;;;;;;10.77;8.85;;;;;;;;;;4995059;28;20042;-48
2021/08/26 13:21:25;;;;;;;11.02;8.80;;;;;;;;;;4995341;28;20081;-46
2021/08/26 13:23:51;;;;;;;9.32;8.27;;;;;;;;;;4995454;28;20049;-47
2021/08/26 13:26:18;;;;;;;11.57;8.65;;;;;;;;;;4994869;28;20046;-47
2021/08/26 13:28:45;;;;;;;10.52;9.35;;;;;;;;;;4995509;28;20411;-47
2021/08/26 13:31:13;;;;;;;13.10;10.40;;;;;;;;;;4995088;28;20074;-46
2021/08/26 13:33:39;;;;;;;11.52;10.25;;;;;;;;;;4995174;28;20101;-47
2021/08/26 13:36:06;;;;;;;11.68;9.98;;;;;;;;;;4994738;28;20038;-50
2021/08/26 13:38:34;;;;;;;13.30;10.00;;;;;;;;;;4994825;28;20042;-50
2021/08/26 13:41:01;;;;;;;11.57;10.07;;;;;;;;;;4994831;28;20411;-49
2021/08/26 13:43:28;;;;;;;12.75;11.32;;;;;;;;;;4994954;28;20065;-48
2021/08/26 13:45:55;;;;;;;10.75;8.45;;;;;;;;;;5009716;28;20137;-48
2021/08/26 13:48:22;;;;;;;9.35;7.40;;;;;;;;;;4994571;28;20065;-51
2021/08/26 13:50:50;;;;;;;9.10;7.63;;;;;;;;;;4994769;28;20492;-48
2021/08/26 13:53:17;;;;;;;7.15;6.35;;;;;;;;;;5009836;28;20056;-47
2021/08/26 13:55:44;;;;;;;7.18;6.03;;;;;;;;;;4994283;28;20038;-47
2021/08/26 13:58:11;;;;;;;6.82;5.90;;;;;;;;;;4993183;28;20125;-47
2021/08/26 14:00:38;;;;;;;6.90;5.47;;;;;;;;;;5003267;28;20044;-47
2021/08/26 14:03:05;;;;;;;6.22;4.88;;;;;;;;;;5014155;28;20042;-47
2021/08/26 14:05:33;;;;;;;5.82;4.80;;;;;;;;;;5013968;28;20041;-47
2021/08/26 14:08:00;;;;;;;5.38;4.53;;;;;;;;;;4994646;28;20071;-47
2021/08/26 14:10:27;;;;;;;5.97;5.07;;;;;;;;;;4994115;28;20041;-51
2021/08/26 14:12:54;;;;;;;6.60;4.72;;;;;;;;;;4994406;28;20038;-49
2021/08/26 14:15:20;;;;;;;4.40;3.40;;;;;;;;;;4993846;28;20050;-49
2021/08/26 14:17:47;;;;;;;4.97;3.80;;;;;;;;;;4994240;28;20042;-46
2021/08/26 14:20:14;;;;;;;5.47;3.65;;;;;;;;;;4993931;28;20046;-48
2021/08/26 14:22:41;;;;;;;4.53;3.50;;;;;;;;;;4994321;28;20061;-48
2021/08/26 14:25:08;;;;;;;5.32;3.50;;;;;;;;;;4993910;28;20488;-48
2021/08/26 14:27:35;;;;;;;6.20;4.13;;;;;;;;;;5026465;28;20044;-48
2021/08/26 14:30:02;;;;;;;5.18;3.90;;;;;;;;;;5025144;28;20040;-51
2021/08/26 14:32:29;;;;;;;4.60;3.63;;;;;;;;;;5030070;28;20129;-52
2021/08/26 14:34:56;;;;;;;4.53;3.40;;;;;;;;;;5027984;28;20068;-55
2021/08/26 14:37:22;;;;;;;4.45;3.53;;;;;;;;;;5031281;28;20038;-50
2021/08/26 14:39:49;;;;;;;4.85;3.67;;;;;;;;;;5015730;28;20120;-56
2021/08/26 14:42:16;;;;;;;5.78;4.22;;;;;;;;;;5009960;28;20414;-48